sensor_id;sensor_type;location;lat;lon;timestamp;temperature;humidity
29687;DHT22;16599;47.078;15.536;2023-05-01T00:00:52;4.90;99.90
29687;DHT22;16599;47.078;15.536;2023-05-01T00:03:19;4.60;99.90
29687;DHT22;16599;47.078;15.536;2023-05-01T00:05:47;4.80;99.90
29687;DHT22;16599;47.078;15.536;2023-05-01T00:08:14;4.80;99.90
29687;DHT22;16599;47.078;15.536;2023-05-01T00:10:41;4.70;99.90
29687;DHT22;16599;47.078;15.536;2023-05-01T00:13:09;4.80;99.90
29687;DHT22;16599;47.078;15.536;2023-05-01T00:15:36;5.00;99.90
29687;DHT22;16599;47.078;15.536;2023-05-01T00:18:06;5.10;99.90
29687;DHT22;16599;47.078;15.536;2023-05-01T00:20:33;5.00;99.90
29687;DHT22;16599;47.078;15.536;2023-05-01T00:23:00;5.10;99.90
29687;DHT22;16599;47.078;15.536;2023-05-01T00:25:26;5.10;99.90
29687;DHT22;16599;47.078;15.536;2023-05-01T00:27:54;4.90;99.90
29687;DHT22;16599;47.078;15.536;2023-05-01T00:30:21;5.00;99.90
29687;DHT22;16599;47.078;15.536;2023-05-01T00:32:47;5.10;99.90
29687;DHT22;16599;47.078;15.536;2023-05-01T00:35:14;5.20;99.90
29687;DHT22;16599;47.078;15.536;2023-05-01T00:37:42;4.80;99.90
29687;DHT22;16599;47.078;15.536;2023-05-01T00:40:09;4.60;99.90
29687;DHT22;16599;47.078;15.536;2023-05-01T00:42:37;4.70;99.90
29687;DHT22;16599;47.078;15.536;2023-05-01T00:45:06;4.90;99.90
29687;DHT22;16599;47.078;15.536;2023-05-01T00:47:36;4.90;99.90
29687;DHT22;16599;47.078;15.536;2023-05-01T00:50:04;5.00;99.90
29687;DHT22;16599;47.078;15.536;2023-05-01T00:52:31;5.10;99.90
29687;DHT22;16599;47.078;15.536;2023-05-01T00:54:58;5.00;99.90
29687;DHT22;16599;47.078;15.536;2023-05-01T00:57:26;5.00;99.90
29687;DHT22;16599;47.078;15.536;2023-05-01T00:59:52;4.80;99.90
29687;DHT22;16599;47.078;15.536;2023-05-01T01:02:20;4.70;99.90
29687;DHT22;16599;47.078;15.536;2023-05-01T01:04:47;4.80;99.90
29687;DHT22;16599;47.078;15.536;2023-05-01T01:07:18;4.80;99.90
29687;DHT22;16599;47.078;15.536;2023-05-01T01:12:53;4.80;99.90
29687;DHT22;16599;47.078;15.536;2023-05-01T01:18:40;4.80;99.90
29687;DHT22;16599;47.078;15.536;2023-05-01T01:21:21;4.80;99.90
29687;DHT22;16599;47.078;15.536;2023-05-01T01:23:57;4.80;99.90
29687;DHT22;16599;47.078;15.536;2023-05-01T01:29:25;4.50;99.90
29687;DHT22;16599;47.078;15.536;2023-05-01T01:34:33;4.90;99.90
29687;DHT22;16599;47.078;15.536;2023-05-01T01:37:13;5.00;99.90
29687;DHT22;16599;47.078;15.536;2023-05-01T01:42:17;4.80;99.90
29687;DHT22;16599;47.078;15.536;2023-05-01T01:44:54;4.90;99.90
29687;DHT22;16599;47.078;15.536;2023-05-01T01:47:30;5.00;99.90
29687;DHT22;16599;47.078;15.536;2023-05-01T01:50:03;5.00;99.90
29687;DHT22;16599;47.078;15.536;2023-05-01T01:52:32;5.00;99.90
29687;DHT22;16599;47.078;15.536;2023-05-01T01:55:05;5.00;99.90
29687;DHT22;16599;47.078;15.536;2023-05-01T01:57:35;5.10;99.90
29687;DHT22;16599;47.078;15.536;2023-05-01T02:00:04;5.20;99.90
29687;DHT22;16599;47.078;15.536;2023-05-01T02:02:36;4.90;99.90
29687;DHT22;16599;47.078;15.536;2023-05-01T02:05:06;4.80;99.90
29687;DHT22;16599;47.078;15.536;2023-05-01T02:07:36;4.90;99.90
29687;DHT22;16599;47.078;15.536;2023-05-01T02:10:06;4.90;99.90
29687;DHT22;16599;47.078;15.536;2023-05-01T02:12:35;4.90;99.90
29687;DHT22;16599;47.078;15.536;2023-05-01T02:15:04;4.90;99.90
29687;DHT22;16599;47.078;15.536;2023-05-01T02:17:32;4.80;99.90
29687;DHT22;16599;47.078;15.536;2023-05-01T02:20:01;4.90;99.90
29687;DHT22;16599;47.078;15.536;2023-05-01T02:22:29;5.00;99.90
29687;DHT22;16599;47.078;15.536;2023-05-01T02:24:57;4.90;99.90
29687;DHT22;16599;47.078;15.536;2023-05-01T02:27:30;4.80;99.90
29687;DHT22;16599;47.078;15.536;2023-05-01T02:29:57;4.90;99.90
29687;DHT22;16599;47.078;15.536;2023-05-01T02:32:24;4.60;99.90
29687;DHT22;16599;47.078;15.536;2023-05-01T02:34:52;4.50;99.90
29687;DHT22;16599;47.078;15.536;2023-05-01T02:37:19;4.70;99.90
29687;DHT22;16599;47.078;15.536;2023-05-01T02:39:46;4.80;99.90
29687;DHT22;16599;47.078;15.536;2023-05-01T02:42:15;4.70;99.90
29687;DHT22;16599;47.078;15.536;2023-05-01T02:45:04;4.80;99.90
29687;DHT22;16599;47.078;15.536;2023-05-01T02:47:36;4.80;99.90
29687;DHT22;16599;47.078;15.536;2023-05-01T02:50:05;4.90;99.90
29687;DHT22;16599;47.078;15.536;2023-05-01T02:52:34;4.90;99.90
29687;DHT22;16599;47.078;15.536;2023-05-01T02:55:02;4.90;99.90
29687;DHT22;16599;47.078;15.536;2023-05-01T02:57:31;4.90;99.90
29687;DHT22;16599;47.078;15.536;2023-05-01T02:59:58;4.80;99.90
29687;DHT22;16599;47.078;15.536;2023-05-01T03:02:25;4.70;99.90
29687;DHT22;16599;47.078;15.536;2023-05-01T03:04:52;4.60;99.90
29687;DHT22;16599;47.078;15.536;2023-05-01T03:07:19;4.60;99.90
29687;DHT22;16599;47.078;15.536;2023-05-01T03:09:45;4.60;99.90
29687;DHT22;16599;47.078;15.536;2023-05-01T03:12:12;4.70;99.90
29687;DHT22;16599;47.078;15.536;2023-05-01T03:14:39;4.90;99.90
29687;DHT22;16599;47.078;15.536;2023-05-01T03:17:06;5.10;99.90
29687;DHT22;16599;47.078;15.536;2023-05-01T03:19:33;5.00;99.90
29687;DHT22;16599;47.078;15.536;2023-05-01T03:22:00;5.00;99.90
29687;DHT22;16599;47.078;15.536;2023-05-01T03:24:27;5.10;99.90
29687;DHT22;16599;47.078;15.536;2023-05-01T03:26:54;5.20;99.90
29687;DHT22;16599;47.078;15.536;2023-05-01T03:29:21;5.30;99.90
29687;DHT22;16599;47.078;15.536;2023-05-01T03:31:47;5.30;99.90
29687;DHT22;16599;47.078;15.536;2023-05-01T03:34:14;5.30;99.90
29687;DHT22;16599;47.078;15.536;2023-05-01T03:36:41;5.40;99.90
29687;DHT22;16599;47.078;15.536;2023-05-01T03:39:08;5.40;99.90
29687;DHT22;16599;47.078;15.536;2023-05-01T03:41:35;5.20;99.90
29687;DHT22;16599;47.078;15.536;2023-05-01T03:44:01;5.20;99.90
29687;DHT22;16599;47.078;15.536;2023-05-01T03:46:29;5.30;99.90
29687;DHT22;16599;47.078;15.536;2023-05-01T03:48:56;5.40;99.90
29687;DHT22;16599;47.078;15.536;2023-05-01T03:51:23;5.40;99.90
29687;DHT22;16599;47.078;15.536;2023-05-01T03:53:50;5.50;99.90
29687;DHT22;16599;47.078;15.536;2023-05-01T03:56:17;5.50;99.90
29687;DHT22;16599;47.078;15.536;2023-05-01T03:58:44;5.60;99.90
29687;DHT22;16599;47.078;15.536;2023-05-01T04:01:11;5.70;99.90
29687;DHT22;16599;47.078;15.536;2023-05-01T04:03:38;5.80;99.90
29687;DHT22;16599;47.078;15.536;2023-05-01T04:06:05;5.90;99.90
29687;DHT22;16599;47.078;15.536;2023-05-01T04:08:32;5.90;99.90
29687;DHT22;16599;47.078;15.536;2023-05-01T04:10:59;6.00;99.90
29687;DHT22;16599;47.078;15.536;2023-05-01T04:13:26;6.10;99.90
29687;DHT22;16599;47.078;15.536;2023-05-01T04:15:53;6.20;99.90
29687;DHT22;16599;47.078;15.536;2023-05-01T04:18:23;6.20;99.90
29687;DHT22;16599;47.078;15.536;2023-05-01T04:20:50;6.20;99.90
29687;DHT22;16599;47.078;15.536;2023-05-01T04:23:17;6.10;99.90
29687;DHT22;16599;47.078;15.536;2023-05-01T04:25:46;6.20;99.90
29687;DHT22;16599;47.078;15.536;2023-05-01T04:28:13;6.30;99.90
29687;DHT22;16599;47.078;15.536;2023-05-01T04:30:40;6.40;99.90
29687;DHT22;16599;47.078;15.536;2023-05-01T04:33:07;6.40;99.90
29687;DHT22;16599;47.078;15.536;2023-05-01T04:35:38;6.30;99.90
29687;DHT22;16599;47.078;15.536;2023-05-01T04:38:05;6.30;99.90
29687;DHT22;16599;47.078;15.536;2023-05-01T04:40:32;6.50;99.90
29687;DHT22;16599;47.078;15.536;2023-05-01T04:42:59;6.50;99.90
29687;DHT22;16599;47.078;15.536;2023-05-01T04:45:26;6.60;99.90
29687;DHT22;16599;47.078;15.536;2023-05-01T04:47:53;6.70;99.90
29687;DHT22;16599;47.078;15.536;2023-05-01T04:50:20;6.80;99.90
29687;DHT22;16599;47.078;15.536;2023-05-01T04:52:47;6.80;99.90
29687;DHT22;16599;47.078;15.536;2023-05-01T04:55:14;6.90;99.90
29687;DHT22;16599;47.078;15.536;2023-05-01T04:57:41;6.90;99.90
29687;DHT22;16599;47.078;15.536;2023-05-01T05:00:08;7.00;99.90
29687;DHT22;16599;47.078;15.536;2023-05-01T05:02:35;7.00;99.90
29687;DHT22;16599;47.078;15.536;2023-05-01T05:05:02;7.10;99.90
29687;DHT22;16599;47.078;15.536;2023-05-01T05:07:29;7.10;99.90
29687;DHT22;16599;47.078;15.536;2023-05-01T05:09:56;7.20;99.90
29687;DHT22;16599;47.078;15.536;2023-05-01T05:12:23;7.10;99.90
29687;DHT22;16599;47.078;15.536;2023-05-01T05:14:49;7.10;99.90
29687;DHT22;16599;47.078;15.536;2023-05-01T05:17:16;7.20;99.90
29687;DHT22;16599;47.078;15.536;2023-05-01T05:19:43;7.20;99.90
29687;DHT22;16599;47.078;15.536;2023-05-01T05:22:10;7.30;99.90
29687;DHT22;16599;47.078;15.536;2023-05-01T05:24:52;7.30;99.90
29687;DHT22;16599;47.078;15.536;2023-05-01T05:27:19;7.50;99.90
29687;DHT22;16599;47.078;15.536;2023-05-01T05:29:59;7.50;99.90
29687;DHT22;16599;47.078;15.536;2023-05-01T05:32:26;7.50;99.90
29687;DHT22;16599;47.078;15.536;2023-05-01T05:34:54;7.60;99.90
29687;DHT22;16599;47.078;15.536;2023-05-01T05:37:21;7.60;99.90
29687;DHT22;16599;47.078;15.536;2023-05-01T05:39:48;7.70;99.90
29687;DHT22;16599;47.078;15.536;2023-05-01T05:42:14;7.80;99.90
29687;DHT22;16599;47.078;15.536;2023-05-01T05:44:41;7.80;99.90
29687;DHT22;16599;47.078;15.536;2023-05-01T05:47:08;7.90;99.90
29687;DHT22;16599;47.078;15.536;2023-05-01T05:49:35;7.90;99.90
29687;DHT22;16599;47.078;15.536;2023-05-01T05:52:02;8.10;99.90
29687;DHT22;16599;47.078;15.536;2023-05-01T05:54:28;8.20;99.90
29687;DHT22;16599;47.078;15.536;2023-05-01T05:56:55;8.20;99.90
29687;DHT22;16599;47.078;15.536;2023-05-01T05:59:22;8.30;99.90
29687;DHT22;16599;47.078;15.536;2023-05-01T06:01:49;8.40;99.90
29687;DHT22;16599;47.078;15.536;2023-05-01T06:04:16;8.60;99.90
29687;DHT22;16599;47.078;15.536;2023-05-01T06:06:42;8.70;99.90
29687;DHT22;16599;47.078;15.536;2023-05-01T06:09:09;8.80;99.90
29687;DHT22;16599;47.078;15.536;2023-05-01T06:11:38;9.00;99.90
29687;DHT22;16599;47.078;15.536;2023-05-01T06:14:05;9.10;99.90
29687;DHT22;16599;47.078;15.536;2023-05-01T06:16:33;9.30;99.90
29687;DHT22;16599;47.078;15.536;2023-05-01T06:19:00;9.60;99.90
29687;DHT22;16599;47.078;15.536;2023-05-01T06:21:28;9.70;99.90
29687;DHT22;16599;47.078;15.536;2023-05-01T06:23:55;10.10;99.90
29687;DHT22;16599;47.078;15.536;2023-05-01T06:26:21;10.30;99.90
29687;DHT22;16599;47.078;15.536;2023-05-01T06:28:48;10.60;99.90
29687;DHT22;16599;47.078;15.536;2023-05-01T06:31:15;10.80;97.60
29687;DHT22;16599;47.078;15.536;2023-05-01T06:33:42;10.90;99.10
29687;DHT22;16599;47.078;15.536;2023-05-01T06:36:09;10.80;96.90
29687;DHT22;16599;47.078;15.536;2023-05-01T06:38:36;11.10;97.10
29687;DHT22;16599;47.078;15.536;2023-05-01T06:41:03;11.20;92.40
29687;DHT22;16599;47.078;15.536;2023-05-01T06:43:31;11.30;92.20
29687;DHT22;16599;47.078;15.536;2023-05-01T06:45:58;11.50;91.40
29687;DHT22;16599;47.078;15.536;2023-05-01T06:48:25;11.50;90.70
29687;DHT22;16599;47.078;15.536;2023-05-01T06:50:52;11.60;90.20
29687;DHT22;16599;47.078;15.536;2023-05-01T06:53:19;11.60;89.20
29687;DHT22;16599;47.078;15.536;2023-05-01T06:55:45;11.70;86.90
29687;DHT22;16599;47.078;15.536;2023-05-01T06:58:12;11.70;88.50
29687;DHT22;16599;47.078;15.536;2023-05-01T07:00:50;11.60;89.00
29687;DHT22;16599;47.078;15.536;2023-05-01T07:03:18;11.70;88.40
29687;DHT22;16599;47.078;15.536;2023-05-01T07:05:45;11.70;89.10
29687;DHT22;16599;47.078;15.536;2023-05-01T07:08:11;11.80;88.00
29687;DHT22;16599;47.078;15.536;2023-05-01T07:10:40;11.80;88.50
29687;DHT22;16599;47.078;15.536;2023-05-01T07:13:08;11.80;87.90
29687;DHT22;16599;47.078;15.536;2023-05-01T07:15:35;11.90;88.40
29687;DHT22;16599;47.078;15.536;2023-05-01T07:18:02;11.70;87.90
29687;DHT22;16599;47.078;15.536;2023-05-01T07:20:31;11.80;87.60
29687;DHT22;16599;47.078;15.536;2023-05-01T07:22:59;11.80;89.30
29687;DHT22;16599;47.078;15.536;2023-05-01T07:25:25;11.80;88.00
29687;DHT22;16599;47.078;15.536;2023-05-01T07:27:52;12.00;88.60
29687;DHT22;16599;47.078;15.536;2023-05-01T07:30:20;12.20;86.70
29687;DHT22;16599;47.078;15.536;2023-05-01T07:32:47;12.50;90.50
29687;DHT22;16599;47.078;15.536;2023-05-01T07:35:16;12.50;86.20
29687;DHT22;16599;47.078;15.536;2023-05-01T07:37:43;12.60;89.30
29687;DHT22;16599;47.078;15.536;2023-05-01T07:40:10;12.50;87.30
29687;DHT22;16599;47.078;15.536;2023-05-01T07:42:38;12.20;85.50
29687;DHT22;16599;47.078;15.536;2023-05-01T07:45:07;12.20;87.00
29687;DHT22;16599;47.078;15.536;2023-05-01T07:47:34;12.20;88.20
29687;DHT22;16599;47.078;15.536;2023-05-01T07:50:02;12.40;89.70
29687;DHT22;16599;47.078;15.536;2023-05-01T07:52:30;12.60;87.40
29687;DHT22;16599;47.078;15.536;2023-05-01T07:54:57;12.70;85.80
29687;DHT22;16599;47.078;15.536;2023-05-01T07:57:24;12.90;85.10
29687;DHT22;16599;47.078;15.536;2023-05-01T07:59:55;12.90;85.40
29687;DHT22;16599;47.078;15.536;2023-05-01T08:02:22;12.80;86.00
29687;DHT22;16599;47.078;15.536;2023-05-01T08:04:49;13.00;88.70
29687;DHT22;16599;47.078;15.536;2023-05-01T08:07:17;13.40;87.00
29687;DHT22;16599;47.078;15.536;2023-05-01T08:09:45;13.60;86.90
29687;DHT22;16599;47.078;15.536;2023-05-01T08:12:12;13.60;83.80
29687;DHT22;16599;47.078;15.536;2023-05-01T08:14:39;13.50;83.50
29687;DHT22;16599;47.078;15.536;2023-05-01T08:17:06;13.40;84.90
29687;DHT22;16599;47.078;15.536;2023-05-01T08:19:33;13.30;84.10
29687;DHT22;16599;47.078;15.536;2023-05-01T08:22:00;13.30;84.00
29687;DHT22;16599;47.078;15.536;2023-05-01T08:24:27;13.40;84.70
29687;DHT22;16599;47.078;15.536;2023-05-01T08:26:54;13.30;84.00
29687;DHT22;16599;47.078;15.536;2023-05-01T08:29:21;13.40;84.40
29687;DHT22;16599;47.078;15.536;2023-05-01T08:31:48;13.50;82.90
29687;DHT22;16599;47.078;15.536;2023-05-01T08:34:15;13.60;86.20
29687;DHT22;16599;47.078;15.536;2023-05-01T08:36:43;13.80;85.70
29687;DHT22;16599;47.078;15.536;2023-05-01T08:39:09;13.60;84.20
29687;DHT22;16599;47.078;15.536;2023-05-01T08:41:37;13.40;86.40
29687;DHT22;16599;47.078;15.536;2023-05-01T08:44:06;13.20;85.80
29687;DHT22;16599;47.078;15.536;2023-05-01T08:46:46;13.40;84.40
29687;DHT22;16599;47.078;15.536;2023-05-01T08:49:15;13.60;85.70
29687;DHT22;16599;47.078;15.536;2023-05-01T08:51:46;13.80;87.00
29687;DHT22;16599;47.078;15.536;2023-05-01T08:54:14;14.00;81.50
29687;DHT22;16599;47.078;15.536;2023-05-01T08:56:43;14.40;85.80
29687;DHT22;16599;47.078;15.536;2023-05-01T08:59:12;14.50;82.00
29687;DHT22;16599;47.078;15.536;2023-05-01T09:01:40;14.20;82.20
29687;DHT22;16599;47.078;15.536;2023-05-01T09:04:09;14.10;82.70
29687;DHT22;16599;47.078;15.536;2023-05-01T09:06:37;14.10;81.70
29687;DHT22;16599;47.078;15.536;2023-05-01T09:09:04;14.00;85.10
29687;DHT22;16599;47.078;15.536;2023-05-01T09:11:31;14.20;80.60
29687;DHT22;16599;47.078;15.536;2023-05-01T09:14:01;14.20;82.30
29687;DHT22;16599;47.078;15.536;2023-05-01T09:16:31;14.40;82.40
29687;DHT22;16599;47.078;15.536;2023-05-01T09:18:59;15.00;84.60
29687;DHT22;16599;47.078;15.536;2023-05-01T09:21:27;15.20;82.60
29687;DHT22;16599;47.078;15.536;2023-05-01T09:23:59;14.90;80.50
29687;DHT22;16599;47.078;15.536;2023-05-01T09:26:26;15.10;81.60
29687;DHT22;16599;47.078;15.536;2023-05-01T09:28:53;14.80;80.70
29687;DHT22;16599;47.078;15.536;2023-05-01T09:31:26;14.70;82.50
29687;DHT22;16599;47.078;15.536;2023-05-01T09:33:59;14.70;82.20
29687;DHT22;16599;47.078;15.536;2023-05-01T09:36:33;14.70;79.80
29687;DHT22;16599;47.078;15.536;2023-05-01T09:39:02;14.70;81.10
29687;DHT22;16599;47.078;15.536;2023-05-01T09:41:29;14.30;80.90
29687;DHT22;16599;47.078;15.536;2023-05-01T09:43:59;14.40;82.70
29687;DHT22;16599;47.078;15.536;2023-05-01T09:46:27;14.20;84.40
29687;DHT22;16599;47.078;15.536;2023-05-01T09:48:58;14.70;80.90
29687;DHT22;16599;47.078;15.536;2023-05-01T09:51:26;15.00;81.50
29687;DHT22;16599;47.078;15.536;2023-05-01T09:54:18;15.40;78.90
29687;DHT22;16599;47.078;15.536;2023-05-01T09:56:47;15.40;78.50
29687;DHT22;16599;47.078;15.536;2023-05-01T09:59:18;15.20;80.40
29687;DHT22;16599;47.078;15.536;2023-05-01T10:01:46;15.00;79.00
29687;DHT22;16599;47.078;15.536;2023-05-01T10:04:15;15.10;79.20
29687;DHT22;16599;47.078;15.536;2023-05-01T10:06:41;15.40;78.70
29687;DHT22;16599;47.078;15.536;2023-05-01T10:09:08;15.10;77.70
29687;DHT22;16599;47.078;15.536;2023-05-01T10:11:53;15.60;78.10
29687;DHT22;16599;47.078;15.536;2023-05-01T10:14:22;16.00;74.50
29687;DHT22;16599;47.078;15.536;2023-05-01T10:16:50;15.80;77.10
29687;DHT22;16599;47.078;15.536;2023-05-01T10:19:19;15.40;76.60
29687;DHT22;16599;47.078;15.536;2023-05-01T10:21:46;15.50;77.20
29687;DHT22;16599;47.078;15.536;2023-05-01T10:24:13;16.00;76.60
29687;DHT22;16599;47.078;15.536;2023-05-01T10:26:42;16.50;73.00
29687;DHT22;16599;47.078;15.536;2023-05-01T10:29:11;16.40;72.40
29687;DHT22;16599;47.078;15.536;2023-05-01T10:31:38;16.80;73.60
29687;DHT22;16599;47.078;15.536;2023-05-01T10:34:08;17.00;73.60
29687;DHT22;16599;47.078;15.536;2023-05-01T10:36:42;16.90;72.10
29687;DHT22;16599;47.078;15.536;2023-05-01T10:39:34;16.90;72.70
29687;DHT22;16599;47.078;15.536;2023-05-01T10:42:08;16.30;71.20
29687;DHT22;16599;47.078;15.536;2023-05-01T10:44:43;15.50;71.80
29687;DHT22;16599;47.078;15.536;2023-05-01T10:50:13;15.40;75.40
29687;DHT22;16599;47.078;15.536;2023-05-01T10:55:47;16.20;74.10
29687;DHT22;16599;47.078;15.536;2023-05-01T11:09:50;15.70;73.30
29687;DHT22;16599;47.078;15.536;2023-05-01T11:15:26;16.40;74.80
29687;DHT22;16599;47.078;15.536;2023-05-01T11:17:54;16.20;73.00
29687;DHT22;16599;47.078;15.536;2023-05-01T11:23:18;16.70;74.00
29687;DHT22;16599;47.078;15.536;2023-05-01T11:25:46;16.70;70.90
29687;DHT22;16599;47.078;15.536;2023-05-01T11:28:18;16.30;70.80
29687;DHT22;16599;47.078;15.536;2023-05-01T11:30:45;16.10;74.00
29687;DHT22;16599;47.078;15.536;2023-05-01T11:33:13;16.10;70.60
29687;DHT22;16599;47.078;15.536;2023-05-01T11:35:55;15.50;76.70
29687;DHT22;16599;47.078;15.536;2023-05-01T11:38:22;15.80;77.10
29687;DHT22;16599;47.078;15.536;2023-05-01T11:41:13;15.90;75.80
29687;DHT22;16599;47.078;15.536;2023-05-01T11:43:54;16.30;76.20
29687;DHT22;16599;47.078;15.536;2023-05-01T11:46:56;16.60;75.00
29687;DHT22;16599;47.078;15.536;2023-05-01T11:49:26;17.00;71.50
29687;DHT22;16599;47.078;15.536;2023-05-01T11:51:57;16.10;72.70
29687;DHT22;16599;47.078;15.536;2023-05-01T11:54:25;16.10;74.60
29687;DHT22;16599;47.078;15.536;2023-05-01T11:56:59;16.00;74.50
29687;DHT22;16599;47.078;15.536;2023-05-01T11:59:29;16.30;75.20
29687;DHT22;16599;47.078;15.536;2023-05-01T12:01:56;16.50;71.70
29687;DHT22;16599;47.078;15.536;2023-05-01T12:04:27;16.80;70.80
29687;DHT22;16599;47.078;15.536;2023-05-01T12:06:58;16.80;73.00
29687;DHT22;16599;47.078;15.536;2023-05-01T12:09:25;16.60;73.00
29687;DHT22;16599;47.078;15.536;2023-05-01T12:11:53;16.60;72.70
29687;DHT22;16599;47.078;15.536;2023-05-01T12:14:21;16.40;70.00
29687;DHT22;16599;47.078;15.536;2023-05-01T12:16:48;16.10;70.80
29687;DHT22;16599;47.078;15.536;2023-05-01T12:19:15;16.40;71.20
29687;DHT22;16599;47.078;15.536;2023-05-01T12:21:43;16.50;71.10
29687;DHT22;16599;47.078;15.536;2023-05-01T12:24:15;16.60;71.50
29687;DHT22;16599;47.078;15.536;2023-05-01T12:26:44;16.70;71.30
29687;DHT22;16599;47.078;15.536;2023-05-01T12:29:11;16.70;72.20
29687;DHT22;16599;47.078;15.536;2023-05-01T12:31:46;16.90;70.00
29687;DHT22;16599;47.078;15.536;2023-05-01T12:34:14;17.30;71.30
29687;DHT22;16599;47.078;15.536;2023-05-01T12:36:41;17.30;68.10
29687;DHT22;16599;47.078;15.536;2023-05-01T12:39:09;17.20;73.30
29687;DHT22;16599;47.078;15.536;2023-05-01T12:41:39;16.60;68.40
29687;DHT22;16599;47.078;15.536;2023-05-01T12:44:27;16.70;73.50
29687;DHT22;16599;47.078;15.536;2023-05-01T12:47:01;17.10;69.60
29687;DHT22;16599;47.078;15.536;2023-05-01T12:49:29;17.10;70.80
29687;DHT22;16599;47.078;15.536;2023-05-01T12:51:59;16.90;69.40
29687;DHT22;16599;47.078;15.536;2023-05-01T12:54:29;16.50;71.50
29687;DHT22;16599;47.078;15.536;2023-05-01T12:57:29;17.00;69.80
29687;DHT22;16599;47.078;15.536;2023-05-01T13:00:02;16.60;71.60
29687;DHT22;16599;47.078;15.536;2023-05-01T13:02:31;16.30;71.50
29687;DHT22;16599;47.078;15.536;2023-05-01T13:05:09;16.40;71.50
29687;DHT22;16599;47.078;15.536;2023-05-01T13:07:37;16.90;71.50
29687;DHT22;16599;47.078;15.536;2023-05-01T13:10:05;17.10;69.10
29687;DHT22;16599;47.078;15.536;2023-05-01T13:12:42;17.40;68.30
29687;DHT22;16599;47.078;15.536;2023-05-01T13:15:19;17.30;67.30
29687;DHT22;16599;47.078;15.536;2023-05-01T13:17:47;17.20;68.40
29687;DHT22;16599;47.078;15.536;2023-05-01T13:20:25;17.00;69.10
29687;DHT22;16599;47.078;15.536;2023-05-01T13:22:53;17.20;69.30
29687;DHT22;16599;47.078;15.536;2023-05-01T13:25:20;17.10;69.90
29687;DHT22;16599;47.078;15.536;2023-05-01T13:27:48;17.20;73.80
29687;DHT22;16599;47.078;15.536;2023-05-01T13:30:30;17.60;68.10
29687;DHT22;16599;47.078;15.536;2023-05-01T13:33:12;17.60;69.50
29687;DHT22;16599;47.078;15.536;2023-05-01T13:35:38;17.50;69.50
29687;DHT22;16599;47.078;15.536;2023-05-01T13:38:10;17.60;69.30
29687;DHT22;16599;47.078;15.536;2023-05-01T13:40:39;17.60;70.50
29687;DHT22;16599;47.078;15.536;2023-05-01T13:43:12;17.80;70.00
29687;DHT22;16599;47.078;15.536;2023-05-01T13:45:41;17.90;70.00
29687;DHT22;16599;47.078;15.536;2023-05-01T13:48:08;18.00;69.90
29687;DHT22;16599;47.078;15.536;2023-05-01T13:50:38;17.50;67.80
29687;DHT22;16599;47.078;15.536;2023-05-01T13:53:06;17.20;67.70
29687;DHT22;16599;47.078;15.536;2023-05-01T13:55:33;17.30;71.30
29687;DHT22;16599;47.078;15.536;2023-05-01T13:57:59;17.40;68.90
29687;DHT22;16599;47.078;15.536;2023-05-01T14:00:28;17.50;69.00
29687;DHT22;16599;47.078;15.536;2023-05-01T14:02:55;17.20;69.80
29687;DHT22;16599;47.078;15.536;2023-05-01T14:05:28;17.60;69.50
29687;DHT22;16599;47.078;15.536;2023-05-01T14:07:57;17.90;68.20
29687;DHT22;16599;47.078;15.536;2023-05-01T14:10:27;17.50;68.30
29687;DHT22;16599;47.078;15.536;2023-05-01T14:12:57;18.00;71.00
29687;DHT22;16599;47.078;15.536;2023-05-01T14:15:25;18.20;68.20
29687;DHT22;16599;47.078;15.536;2023-05-01T14:17:52;18.10;67.00
29687;DHT22;16599;47.078;15.536;2023-05-01T14:20:19;18.10;67.90
29687;DHT22;16599;47.078;15.536;2023-05-01T14:22:47;18.30;71.20
29687;DHT22;16599;47.078;15.536;2023-05-01T14:25:28;18.30;69.00
29687;DHT22;16599;47.078;15.536;2023-05-01T14:27:58;17.40;70.30
29687;DHT22;16599;47.078;15.536;2023-05-01T14:30:33;16.90;69.80
29687;DHT22;16599;47.078;15.536;2023-05-01T14:33:06;16.80;71.90
29687;DHT22;16599;47.078;15.536;2023-05-01T14:35:34;17.40;72.20
29687;DHT22;16599;47.078;15.536;2023-05-01T14:38:15;17.40;71.30
29687;DHT22;16599;47.078;15.536;2023-05-01T14:40:43;17.20;71.20
29687;DHT22;16599;47.078;15.536;2023-05-01T14:43:20;17.10;69.70
29687;DHT22;16599;47.078;15.536;2023-05-01T14:45:49;17.10;72.10
29687;DHT22;16599;47.078;15.536;2023-05-01T14:48:24;16.80;72.40
29687;DHT22;16599;47.078;15.536;2023-05-01T14:50:51;16.70;72.50
29687;DHT22;16599;47.078;15.536;2023-05-01T14:53:20;16.50;73.80
29687;DHT22;16599;47.078;15.536;2023-05-01T14:55:50;16.70;75.40
29687;DHT22;16599;47.078;15.536;2023-05-01T14:58:17;17.10;73.20
29687;DHT22;16599;47.078;15.536;2023-05-01T15:00:44;17.30;71.80
29687;DHT22;16599;47.078;15.536;2023-05-01T15:03:11;17.50;72.10
29687;DHT22;16599;47.078;15.536;2023-05-01T15:05:38;17.50;70.70
29687;DHT22;16599;47.078;15.536;2023-05-01T15:08:08;17.60;71.80
29687;DHT22;16599;47.078;15.536;2023-05-01T15:10:34;17.10;72.80
29687;DHT22;16599;47.078;15.536;2023-05-01T15:13:02;16.80;73.10
29687;DHT22;16599;47.078;15.536;2023-05-01T15:15:29;17.00;72.30
29687;DHT22;16599;47.078;15.536;2023-05-01T15:17:56;16.90;72.70
29687;DHT22;16599;47.078;15.536;2023-05-01T15:20:23;17.00;73.20
29687;DHT22;16599;47.078;15.536;2023-05-01T15:22:50;17.00;72.80
29687;DHT22;16599;47.078;15.536;2023-05-01T15:25:17;17.00;73.10
29687;DHT22;16599;47.078;15.536;2023-05-01T15:27:44;16.90;74.30
29687;DHT22;16599;47.078;15.536;2023-05-01T15:30:13;17.00;73.60
29687;DHT22;16599;47.078;15.536;2023-05-01T15:32:40;16.70;73.20
29687;DHT22;16599;47.078;15.536;2023-05-01T15:35:07;16.40;74.30
29687;DHT22;16599;47.078;15.536;2023-05-01T15:37:34;16.30;75.10
29687;DHT22;16599;47.078;15.536;2023-05-01T15:40:02;16.50;75.30
29687;DHT22;16599;47.078;15.536;2023-05-01T15:42:30;16.80;74.20
29687;DHT22;16599;47.078;15.536;2023-05-01T15:44:57;16.50;73.30
29687;DHT22;16599;47.078;15.536;2023-05-01T15:47:24;16.40;74.70
29687;DHT22;16599;47.078;15.536;2023-05-01T15:49:51;16.40;76.00
29687;DHT22;16599;47.078;15.536;2023-05-01T15:52:19;16.50;75.70
29687;DHT22;16599;47.078;15.536;2023-05-01T15:54:46;16.60;74.70
29687;DHT22;16599;47.078;15.536;2023-05-01T15:57:13;16.60;75.50
29687;DHT22;16599;47.078;15.536;2023-05-01T15:59:43;16.50;76.60
29687;DHT22;16599;47.078;15.536;2023-05-01T16:02:10;16.60;75.10
29687;DHT22;16599;47.078;15.536;2023-05-01T16:04:37;16.60;75.40
29687;DHT22;16599;47.078;15.536;2023-05-01T16:07:04;16.50;75.80
29687;DHT22;16599;47.078;15.536;2023-05-01T16:09:33;16.40;75.70
29687;DHT22;16599;47.078;15.536;2023-05-01T16:12:01;16.20;77.50